createdAt,value
2019-06-15T00:00:07.640Z,99.90
2019-06-15T00:02:39.328Z,99.90
2019-06-15T00:05:08.752Z,99.90
2019-06-15T00:07:38.114Z,99.90
2019-06-15T00:10:07.623Z,99.90
2019-06-15T00:12:36.850Z,99.90
2019-06-15T00:15:06.398Z,99.90
2019-06-15T00:17:35.730Z,99.90
2019-06-15T00:20:06.022Z,99.90
2019-06-15T00:22:35.414Z,99.90
2019-06-15T00:25:04.926Z,99.90
2019-06-15T00:27:34.316Z,99.90
2019-06-15T00:30:03.805Z,99.90
2019-06-15T00:32:33.102Z,99.90
2019-06-15T00:35:02.410Z,99.90
2019-06-15T00:37:31.711Z,99.90
2019-06-15T00:40:01.183Z,99.90
2019-06-15T00:42:30.533Z,99.90
2019-06-15T00:44:59.909Z,99.90
2019-06-15T00:47:29.274Z,99.90
2019-06-15T00:49:58.778Z,99.90
2019-06-15T00:52:28.179Z,99.90
2019-06-15T00:54:57.501Z,99.90
2019-06-15T00:57:26.906Z,99.90
2019-06-15T00:59:56.262Z,99.90
2019-06-15T01:02:25.540Z,99.90
2019-06-15T01:04:54.742Z,99.90
2019-06-15T01:07:24.069Z,99.90
2019-06-15T01:09:53.418Z,99.90
2019-06-15T01:12:22.975Z,99.90
2019-06-15T01:14:52.478Z,99.90
2019-06-15T01:17:21.780Z,99.90
2019-06-15T01:19:51.015Z,99.90
2019-06-15T01:22:20.386Z,99.90
2019-06-15T01:24:57.169Z,99.90
2019-06-15T01:27:20.855Z,99.90
2019-06-15T01:29:50.251Z,99.90
2019-06-15T01:32:19.519Z,99.90
2019-06-15T01:34:48.760Z,99.90
2019-06-15T01:37:18.127Z,99.90
2019-06-15T01:39:47.760Z,99.90
2019-06-15T01:42:17.249Z,99.90
2019-06-15T01:44:46.584Z,99.90
2019-06-15T01:47:15.798Z,99.90
2019-06-15T01:49:45.096Z,99.90
2019-06-15T01:52:14.515Z,99.90
2019-06-15T01:54:43.982Z,99.90
2019-06-15T01:57:13.377Z,99.90
2019-06-15T01:59:42.843Z,99.90
2019-06-15T02:02:12.233Z,99.90
2019-06-15T02:07:48.832Z,99.90
2019-06-15T02:10:18.872Z,99.90
2019-06-15T02:12:48.296Z,99.90
2019-06-15T02:15:17.894Z,99.90
2019-06-15T02:17:47.274Z,99.90
2019-06-15T02:20:16.853Z,99.90
2019-06-15T02:22:46.159Z,99.90
2019-06-15T02:25:34.854Z,99.90
2019-06-15T02:27:54.765Z,99.90
2019-06-15T02:30:28.234Z,99.90
2019-06-15T02:32:58.617Z,99.90
2019-06-15T02:35:28.278Z,99.90
2019-06-15T02:37:57.594Z,99.90
2019-06-15T02:40:27.071Z,99.90
2019-06-15T02:42:56.479Z,99.90
2019-06-15T02:45:26.033Z,99.90
2019-06-15T02:47:55.328Z,99.90
2019-06-15T02:50:24.718Z,99.90
2019-06-15T02:52:54.102Z,99.90
2019-06-15T02:55:23.405Z,99.90
2019-06-15T02:57:52.693Z,99.90
2019-06-15T03:00:31.083Z,99.90
2019-06-15T03:03:00.456Z,99.90
2019-06-15T03:05:29.787Z,99.90
2019-06-15T03:07:59.610Z,99.90
2019-06-15T03:10:29.790Z,99.90
2019-06-15T03:12:59.105Z,99.90
2019-06-15T03:15:28.425Z,99.90
2019-06-15T03:17:57.844Z,99.90
2019-06-15T03:20:27.252Z,99.90
2019-06-15T03:22:56.572Z,99.90
2019-06-15T03:25:26.019Z,99.90
2019-06-15T03:27:55.309Z,99.90
2019-06-15T03:30:24.662Z,99.90
2019-06-15T03:32:54.087Z,99.90
2019-06-15T03:35:23.667Z,99.90
2019-06-15T03:37:52.961Z,99.90
2019-06-15T03:40:22.270Z,99.90
2019-06-15T03:42:51.622Z,99.90
2019-06-15T03:45:20.892Z,99.90
2019-06-15T03:47:50.309Z,99.90
2019-06-15T03:50:19.630Z,99.90
2019-06-15T03:52:48.936Z,99.90
2019-06-15T03:55:18.338Z,99.90
2019-06-15T03:57:47.680Z,99.90
2019-06-15T04:00:46.100Z,99.90
2019-06-15T04:03:17.250Z,99.90
2019-06-15T04:05:46.581Z,99.90
2019-06-15T04:08:15.932Z,99.90
2019-06-15T04:10:45.399Z,99.90
2019-06-15T04:13:14.858Z,99.90
2019-06-15T04:15:44.444Z,99.90
2019-06-15T04:18:13.761Z,99.90
2019-06-15T04:20:43.062Z,99.90
2019-06-15T04:23:12.419Z,99.90
2019-06-15T04:25:44.191Z,99.90
2019-06-15T04:28:12.827Z,99.90
2019-06-15T04:30:42.636Z,99.90
2019-06-15T04:33:12.047Z,99.90
2019-06-15T04:35:41.431Z,99.90
2019-06-15T04:38:10.668Z,99.90
2019-06-15T04:40:39.999Z,99.90
2019-06-15T04:43:09.388Z,99.90
2019-06-15T04:45:38.673Z,99.90
2019-06-15T04:48:08.066Z,99.90
2019-06-15T04:50:37.377Z,99.90
2019-06-15T04:53:06.691Z,99.90
2019-06-15T04:55:36.022Z,99.90
2019-06-15T04:58:05.570Z,99.90
2019-06-15T05:00:35.027Z,99.90
2019-06-15T05:03:04.494Z,99.90
2019-06-15T05:05:33.800Z,99.90
2019-06-15T05:08:03.383Z,99.90
2019-06-15T05:10:32.705Z,99.90
2019-06-15T05:13:02.050Z,99.90
2019-06-15T05:15:31.286Z,99.90
2019-06-15T05:18:00.595Z,99.90
2019-06-15T05:20:29.914Z,99.90
2019-06-15T05:22:59.344Z,99.90
2019-06-15T05:25:31.112Z,99.90
2019-06-15T05:28:00.498Z,99.90
2019-06-15T05:30:29.943Z,99.90
2019-06-15T05:32:59.275Z,99.90
2019-06-15T05:35:28.656Z,99.90
2019-06-15T05:37:58.006Z,99.90
2019-06-15T05:40:27.408Z,99.90
2019-06-15T05:42:56.813Z,99.90
2019-06-15T05:45:26.111Z,99.90
2019-06-15T05:47:55.486Z,99.90
2019-06-15T05:50:26.938Z,99.90
2019-06-15T05:52:56.341Z,99.90
2019-06-15T05:55:25.767Z,99.90
2019-06-15T05:57:55.198Z,99.90
2019-06-15T06:00:26.146Z,99.90
2019-06-15T06:02:55.542Z,99.90
2019-06-15T06:05:24.896Z,99.90
2019-06-15T06:07:54.334Z,99.90
2019-06-15T06:10:23.595Z,99.90
2019-06-15T06:12:53.003Z,99.90
2019-06-15T06:15:22.548Z,99.90
2019-06-15T06:17:51.918Z,99.90
2019-06-15T06:20:21.206Z,99.90
2019-06-15T06:22:50.524Z,99.90
2019-06-15T06:25:19.797Z,99.90
2019-06-15T06:27:49.253Z,99.90
2019-06-15T06:30:18.577Z,99.90
2019-06-15T06:32:47.927Z,99.90
2019-06-15T06:35:17.228Z,99.90
2019-06-15T06:37:46.588Z,99.90
2019-06-15T06:40:17.398Z,99.90
2019-06-15T06:42:49.086Z,99.90
2019-06-15T06:45:18.509Z,99.90
2019-06-15T06:47:50.858Z,99.90
2019-06-15T06:50:20.461Z,99.90
2019-06-15T06:52:49.795Z,99.90
2019-06-15T06:55:19.200Z,99.90
2019-06-15T06:57:52.691Z,99.90
2019-06-15T07:00:19.724Z,99.90
2019-06-15T07:02:49.036Z,99.90
2019-06-15T07:05:19.979Z,99.90
2019-06-15T07:07:49.302Z,99.90
2019-06-15T07:10:18.731Z,99.90
2019-06-15T07:12:48.044Z,99.90
2019-06-15T07:15:17.505Z,99.90
2019-06-15T07:17:46.804Z,99.90
2019-06-15T07:20:16.215Z,99.90
2019-06-15T07:22:45.563Z,99.90
2019-06-15T07:25:15.098Z,99.90
2019-06-15T07:27:44.440Z,99.90
2019-06-15T07:30:14.046Z,99.90
2019-06-15T07:32:43.707Z,99.90
2019-06-15T07:35:13.447Z,99.90
2019-06-15T07:37:44.566Z,99.90
2019-06-15T07:40:17.144Z,99.90
2019-06-15T07:42:46.466Z,99.90
2019-06-15T07:45:16.389Z,99.90
2019-06-15T07:47:45.710Z,99.90
2019-06-15T07:50:15.297Z,99.90
2019-06-15T07:52:44.723Z,99.90
2019-06-15T07:55:14.126Z,99.90
2019-06-15T07:57:43.425Z,99.90
2019-06-15T08:00:13.030Z,99.90
2019-06-15T08:02:42.394Z,99.90
2019-06-15T08:05:12.027Z,99.90
2019-06-15T08:07:41.512Z,99.90
2019-06-15T08:10:11.057Z,99.90
2019-06-15T08:12:40.402Z,99.90
2019-06-15T08:15:10.343Z,99.90
2019-06-15T08:17:39.722Z,99.90
2019-06-15T08:20:10.088Z,99.90
2019-06-15T08:22:39.728Z,99.90
2019-06-15T08:25:10.719Z,99.90
2019-06-15T08:27:40.213Z,99.90
2019-06-15T08:30:10.316Z,99.90
2019-06-15T08:32:39.870Z,99.90
2019-06-15T08:35:09.571Z,99.90
2019-06-15T08:37:38.871Z,99.60
2019-06-15T08:40:09.067Z,99.80
2019-06-15T08:42:38.520Z,98.90
2019-06-15T08:45:09.048Z,98.70
2019-06-15T08:47:38.414Z,98.30
2019-06-15T08:50:08.817Z,98.80
2019-06-15T08:52:38.428Z,98.80
2019-06-15T08:55:10.491Z,98.40
2019-06-15T08:57:40.642Z,98.00
2019-06-15T09:00:11.697Z,98.20
2019-06-15T09:02:41.111Z,98.50
2019-06-15T09:05:10.835Z,97.00
2019-06-15T09:07:40.300Z,96.70
2019-06-15T09:10:10.410Z,96.40
2019-06-15T09:12:39.939Z,96.50
2019-06-15T09:15:10.187Z,96.40
2019-06-15T09:17:39.726Z,94.70
2019-06-15T09:20:11.313Z,94.90
2019-06-15T09:22:41.054Z,95.20
2019-06-15T09:25:10.868Z,94.50
2019-06-15T09:27:40.217Z,94.00
2019-06-15T09:30:09.839Z,94.10
2019-06-15T09:32:39.298Z,93.10
2019-06-15T09:35:11.342Z,92.70
2019-06-15T09:37:40.919Z,91.50
2019-06-15T09:40:10.352Z,91.70
2019-06-15T09:42:39.757Z,90.70
2019-06-15T09:45:09.314Z,89.90
2019-06-15T09:47:38.638Z,90.80
2019-06-15T09:50:08.064Z,90.00
2019-06-15T09:52:37.447Z,89.60
2019-06-15T09:55:06.810Z,89.60
2019-06-15T09:57:36.216Z,88.80
2019-06-15T10:00:06.423Z,88.70
2019-06-15T10:02:35.925Z,87.10
2019-06-15T10:05:08.255Z,85.50
2019-06-15T10:07:37.557Z,85.50
2019-06-15T10:10:07.704Z,85.60
2019-06-15T10:12:37.281Z,86.00
2019-06-15T10:17:42.478Z,84.90
2019-06-15T10:20:13.408Z,83.60
2019-06-15T10:22:42.859Z,84.90
2019-06-15T10:25:12.368Z,84.30
2019-06-15T10:27:41.719Z,79.10
2019-06-15T10:30:11.616Z,79.00
2019-06-15T10:32:41.138Z,75.30
2019-06-15T10:35:10.802Z,76.20
2019-06-15T10:37:40.122Z,77.00
2019-06-15T10:40:09.914Z,77.20
2019-06-15T10:42:39.338Z,77.10
2019-06-15T10:45:11.473Z,75.80
2019-06-15T10:47:40.905Z,75.30
2019-06-15T10:50:10.801Z,76.30
2019-06-15T10:52:40.190Z,73.70
2019-06-15T10:55:10.224Z,74.00
2019-06-15T10:57:39.650Z,77.50
2019-06-15T11:00:12.729Z,74.90
2019-06-15T11:02:42.128Z,74.10
2019-06-15T11:05:14.581Z,72.60
2019-06-15T11:07:44.870Z,70.50
2019-06-15T11:10:16.422Z,72.50
2019-06-15T11:12:46.914Z,73.10
2019-06-15T11:15:16.556Z,77.10
2019-06-15T11:17:46.176Z,75.00
2019-06-15T11:20:16.726Z,72.10
2019-06-15T11:22:46.427Z,71.90
2019-06-15T11:25:15.663Z,71.60
2019-06-15T11:27:45.797Z,72.70
2019-06-15T11:30:15.513Z,70.70
2019-06-15T11:32:44.814Z,71.40
2019-06-15T11:35:14.462Z,71.30
2019-06-15T11:37:43.859Z,72.50
2019-06-15T11:40:13.742Z,70.20
2019-06-15T11:42:43.174Z,70.80
2019-06-15T11:45:12.858Z,71.50
2019-06-15T11:47:42.300Z,70.90
2019-06-15T11:50:12.176Z,71.10
2019-06-15T11:52:41.930Z,70.80
2019-06-15T11:55:11.460Z,70.80
2019-06-15T11:57:40.950Z,70.40
2019-06-15T12:00:11.074Z,70.50
2019-06-15T12:02:40.594Z,70.70
2019-06-15T12:05:10.018Z,70.80
2019-06-15T12:07:39.277Z,69.40
2019-06-15T12:10:09.037Z,69.20
2019-06-15T12:12:38.504Z,69.60
2019-06-15T12:15:07.958Z,67.30
2019-06-15T12:17:37.413Z,68.30
2019-06-15T12:20:07.887Z,68.80
2019-06-15T12:22:37.185Z,70.80
2019-06-15T12:25:09.083Z,68.80
2019-06-15T12:27:38.616Z,69.70
2019-06-15T12:30:10.542Z,70.90
2019-06-15T12:32:39.891Z,68.60
2019-06-15T12:35:07.588Z,73.40
2019-06-15T12:37:37.105Z,69.20
2019-06-15T12:40:06.673Z,68.70
2019-06-15T12:42:36.058Z,72.50
2019-06-15T12:45:06.458Z,70.00
2019-06-15T12:47:35.900Z,71.10
2019-06-15T12:50:05.970Z,72.30
2019-06-15T12:52:35.471Z,73.20
2019-06-15T12:55:07.761Z,70.50
2019-06-15T12:57:37.187Z,70.80
2019-06-15T13:00:08.500Z,71.80
2019-06-15T13:02:38.021Z,71.60
2019-06-15T13:05:08.625Z,70.70
2019-06-15T13:07:38.168Z,69.30
2019-06-15T13:10:08.100Z,69.30
2019-06-15T13:12:37.614Z,69.10
2019-06-15T13:15:07.807Z,70.90
2019-06-15T13:17:37.114Z,69.10
2019-06-15T13:20:06.699Z,68.80
2019-06-15T13:22:36.271Z,68.70
2019-06-15T13:25:06.083Z,68.90
2019-06-15T13:27:35.554Z,69.00
2019-06-15T13:30:05.419Z,69.50
2019-06-15T13:32:34.774Z,69.00
2019-06-15T13:35:04.427Z,70.60
2019-06-15T13:37:41.941Z,69.20
2019-06-15T13:40:06.317Z,69.30
2019-06-15T13:42:35.704Z,70.00
2019-06-15T13:45:06.184Z,69.80
2019-06-15T13:47:35.514Z,72.00
2019-06-15T13:50:05.784Z,71.60
2019-06-15T13:52:35.301Z,70.70
2019-06-15T13:55:04.993Z,72.00
2019-06-15T13:57:34.486Z,70.20
2019-06-15T14:00:04.712Z,70.70
2019-06-15T14:02:34.144Z,70.80
2019-06-15T14:05:03.528Z,69.30
2019-06-15T14:07:32.979Z,69.20
2019-06-15T14:10:02.400Z,73.00
2019-06-15T14:12:31.907Z,72.30
2019-06-15T14:15:01.259Z,72.20
2019-06-15T14:17:30.802Z,69.00
2019-06-15T14:20:00.208Z,71.00
2019-06-15T14:22:29.687Z,70.80
2019-06-15T14:24:59.048Z,71.30
2019-06-15T14:27:28.313Z,70.30
2019-06-15T14:29:57.659Z,71.40
2019-06-15T14:32:27.154Z,72.40
2019-06-15T14:34:57.022Z,72.20
2019-06-15T14:37:26.395Z,72.40
2019-06-15T14:39:55.727Z,73.00
2019-06-15T14:42:25.124Z,72.10
2019-06-15T14:44:54.556Z,72.40
2019-06-15T14:47:27.244Z,71.90
2019-06-15T14:49:56.562Z,73.30
2019-06-15T14:52:28.130Z,71.90
2019-06-15T14:54:57.569Z,72.10
2019-06-15T14:57:28.027Z,72.20
2019-06-15T15:00:03.988Z,72.10
2019-06-15T15:02:28.446Z,74.10
2019-06-15T15:04:57.843Z,71.70
2019-06-15T15:07:27.403Z,72.00
2019-06-15T15:09:56.920Z,71.70
2019-06-15T15:12:26.815Z,72.20
2019-06-15T15:14:56.807Z,72.80
2019-06-15T15:17:27.096Z,72.80
2019-06-15T15:19:57.318Z,73.20
2019-06-15T15:22:27.111Z,73.40
2019-06-15T15:24:57.024Z,75.20
2019-06-15T15:27:27.300Z,73.60
2019-06-15T15:29:57.234Z,74.20
2019-06-15T15:32:31.233Z,74.30
2019-06-15T15:34:57.703Z,74.30
2019-06-15T15:37:27.076Z,74.30
2019-06-15T15:39:56.746Z,74.30
2019-06-15T15:42:26.829Z,74.80
2019-06-15T15:44:56.709Z,75.60
2019-06-15T15:47:27.256Z,75.20
2019-06-15T15:49:57.754Z,76.40
2019-06-15T15:52:28.267Z,77.40
2019-06-15T15:54:57.748Z,75.60
2019-06-15T15:57:27.598Z,77.80
2019-06-15T15:59:57.125Z,75.90
2019-06-15T16:02:44.433Z,77.00
2019-06-15T16:04:59.487Z,76.90
2019-06-15T16:07:28.927Z,77.20
2019-06-15T16:09:58.331Z,76.90
2019-06-15T16:12:28.988Z,76.70
2019-06-15T16:14:58.587Z,76.50
2019-06-15T16:17:30.711Z,77.20
2019-06-15T16:20:00.103Z,77.70
2019-06-15T16:22:29.559Z,78.50
2019-06-15T16:24:59.063Z,78.30
2019-06-15T16:27:28.606Z,78.10
2019-06-15T16:29:58.077Z,77.30
2019-06-15T16:32:27.798Z,76.90
2019-06-15T16:34:57.259Z,78.30
2019-06-15T16:37:26.834Z,77.80
2019-06-15T16:39:56.296Z,78.10
2019-06-15T16:42:26.789Z,78.30
2019-06-15T16:44:56.358Z,77.90
2019-06-15T16:47:27.341Z,78.60
2019-06-15T16:49:56.982Z,77.80
2019-06-15T16:52:26.915Z,77.40
2019-06-15T16:54:56.864Z,77.10
2019-06-15T16:57:28.529Z,77.80
2019-06-15T16:59:57.928Z,77.80
2019-06-15T17:02:27.521Z,77.60
2019-06-15T17:04:57.081Z,77.80
2019-06-15T17:07:26.534Z,78.30
2019-06-15T17:09:56.905Z,78.30
2019-06-15T17:12:26.611Z,77.90
2019-06-15T17:14:56.455Z,77.90
2019-06-15T17:17:26.571Z,78.30
2019-06-15T17:19:56.937Z,79.50
2019-06-15T17:22:26.724Z,79.10
2019-06-15T17:24:56.521Z,79.70
2019-06-15T17:27:26.334Z,80.00
2019-06-15T17:29:56.229Z,80.00
2019-06-15T17:32:28.289Z,80.00
2019-06-15T17:34:57.730Z,79.90
2019-06-15T17:37:29.546Z,79.80
2019-06-15T17:39:58.952Z,80.10
2019-06-15T17:42:28.377Z,80.50
2019-06-15T17:44:57.794Z,80.90
2019-06-15T17:47:27.116Z,81.60
2019-06-15T17:49:56.486Z,81.80
2019-06-15T17:52:26.543Z,82.00
2019-06-15T17:54:56.240Z,82.20
2019-06-15T17:57:27.416Z,82.60
2019-06-15T17:59:56.966Z,82.60
2019-06-15T18:02:27.710Z,83.00
2019-06-15T18:04:57.117Z,82.90
2019-06-15T18:07:29.328Z,83.00
2019-06-15T18:09:58.673Z,83.10
2019-06-15T18:12:29.481Z,83.40
2019-06-15T18:14:58.938Z,83.50
2019-06-15T18:17:30.766Z,83.70
2019-06-15T18:20:00.129Z,83.70
2019-06-15T18:22:29.576Z,83.90
2019-06-15T18:24:59.098Z,83.50
2019-06-15T18:27:30.143Z,83.50
2019-06-15T18:29:59.547Z,83.80
2019-06-15T18:32:28.933Z,84.60
2019-06-15T18:34:58.492Z,85.50
2019-06-15T18:37:28.187Z,86.10
2019-06-15T18:39:57.701Z,86.20
2019-06-15T18:42:27.241Z,86.80
2019-06-15T18:44:56.793Z,87.90
2019-06-15T18:47:26.712Z,88.30
2019-06-15T18:49:56.238Z,88.90
2019-06-15T18:52:26.618Z,88.90
2019-06-15T18:54:56.208Z,88.90
2019-06-15T18:57:26.913Z,88.80
2019-06-15T18:59:56.558Z,89.00
2019-06-15T19:02:26.720Z,89.00
2019-06-15T19:04:56.769Z,89.10
2019-06-15T19:07:26.959Z,89.30
2019-06-15T19:09:56.601Z,90.00
2019-06-15T19:12:26.405Z,89.40
2019-06-15T19:14:56.236Z,89.20
2019-06-15T19:17:25.647Z,88.90
2019-06-15T19:19:57.129Z,89.30
2019-06-15T19:22:27.147Z,89.20
2019-06-15T19:24:57.104Z,89.60
2019-06-15T19:27:26.624Z,89.60
2019-06-15T19:29:56.532Z,89.60
2019-06-15T19:32:26.534Z,89.30
2019-06-15T19:34:57.008Z,89.50
2019-06-15T19:37:27.846Z,89.50
2019-06-15T19:39:57.426Z,89.60
2019-06-15T19:42:26.779Z,89.80
2019-06-15T19:44:56.267Z,90.00
2019-06-15T19:47:26.617Z,90.10
2019-06-15T19:49:56.881Z,90.10
2019-06-15T19:52:26.721Z,90.30
2019-06-15T19:54:56.112Z,90.30
2019-06-15T19:57:27.139Z,90.40
2019-06-15T19:59:56.771Z,90.60
2019-06-15T20:02:26.989Z,90.70
2019-06-15T20:05:02.594Z,90.80
2019-06-15T20:07:27.474Z,90.80
2019-06-15T20:09:57.064Z,91.00
2019-06-15T20:12:26.593Z,91.10
2019-06-15T20:14:56.697Z,91.20
2019-06-15T20:17:26.434Z,91.20
2019-06-15T20:19:56.043Z,91.30
2019-06-15T20:22:27.422Z,91.30
2019-06-15T20:24:57.757Z,91.40
2019-06-15T20:27:27.238Z,91.50
2019-06-15T20:29:56.614Z,91.60
2019-06-15T20:32:26.347Z,91.60
2019-06-15T20:34:55.912Z,91.70
2019-06-15T20:37:26.254Z,91.90
2019-06-15T20:39:56.144Z,92.00
2019-06-15T20:42:26.999Z,92.10
2019-06-15T20:44:56.779Z,92.10
2019-06-15T20:47:26.625Z,92.10
2019-06-15T20:49:56.835Z,92.00
2019-06-15T20:52:26.589Z,92.00
2019-06-15T20:54:57.095Z,92.00
2019-06-15T20:57:26.475Z,92.20
2019-06-15T20:59:56.461Z,92.20
2019-06-15T21:02:26.991Z,92.70
2019-06-15T21:04:56.901Z,92.50
2019-06-15T21:07:26.919Z,92.70
2019-06-15T21:09:57.411Z,92.80
2019-06-15T21:12:28.990Z,92.90
2019-06-15T21:14:58.447Z,93.30
2019-06-15T21:17:29.747Z,93.10
2019-06-15T21:19:59.140Z,93.00
2019-06-15T21:22:28.524Z,93.00
2019-06-15T21:24:57.897Z,93.00
2019-06-15T21:27:27.611Z,93.00
2019-06-15T21:29:57.166Z,93.30
2019-06-15T21:32:28.023Z,92.90
2019-06-15T21:34:57.505Z,92.90
2019-06-15T21:37:26.850Z,93.00
2019-06-15T21:39:56.323Z,93.00
2019-06-15T21:42:26.564Z,93.00
2019-06-15T21:44:56.278Z,93.10
2019-06-15T21:47:26.116Z,93.10
2019-06-15T21:49:56.019Z,93.30
2019-06-15T21:52:26.694Z,93.40
2019-06-15T21:54:56.134Z,93.40
2019-06-15T21:57:26.857Z,93.50
2019-06-15T21:59:56.650Z,93.60
2019-06-15T22:02:26.607Z,93.80
2019-06-15T22:04:56.221Z,93.90
2019-06-15T22:07:26.152Z,94.10
2019-06-15T22:09:55.689Z,94.20
2019-06-15T22:12:26.887Z,94.30
2019-06-15T22:14:56.933Z,94.40
2019-06-15T22:17:26.479Z,94.50
2019-06-15T22:19:56.920Z,94.60
2019-06-15T22:22:27.256Z,94.70
2019-06-15T22:24:56.725Z,94.90
2019-06-15T22:27:26.106Z,95.10
2019-06-15T22:29:56.535Z,95.50
2019-06-15T22:32:27.043Z,96.00
2019-06-15T22:34:56.659Z,96.70
2019-06-15T22:40:12.265Z,98.00
2019-06-15T22:42:41.686Z,98.50
2019-06-15T22:45:11.654Z,99.00
2019-06-15T22:47:40.993Z,99.30
2019-06-15T22:50:10.507Z,99.40
2019-06-15T22:52:40.135Z,99.30
2019-06-15T22:55:09.859Z,99.00
2019-06-15T22:57:39.463Z,98.70
2019-06-15T23:00:09.427Z,98.50
2019-06-15T23:02:38.792Z,98.40
2019-06-15T23:05:08.513Z,98.20
2019-06-15T23:07:37.913Z,98.50
2019-06-15T23:10:07.995Z,98.60
2019-06-15T23:12:37.492Z,98.70
2019-06-15T23:15:07.579Z,98.60
2019-06-15T23:17:37.447Z,98.60
2019-06-15T23:20:08.337Z,98.50
2019-06-15T23:22:37.711Z,98.30
2019-06-15T23:25:07.400Z,98.00
2019-06-15T23:27:36.966Z,98.00
2019-06-15T23:30:06.964Z,97.90
2019-06-15T23:32:36.443Z,97.50
2019-06-15T23:35:08.680Z,97.30
2019-06-15T23:37:38.101Z,97.60
2019-06-15T23:40:21.446Z,97.20
2019-06-15T23:42:51.570Z,97.30
2019-06-15T23:45:21.509Z,97.10
2019-06-15T23:47:51.074Z,97.30
2019-06-15T23:50:21.263Z,97.30
2019-06-15T23:52:50.918Z,97.40
2019-06-15T23:55:20.724Z,97.50
2019-06-15T23:57:50.248Z,97.70
